Time,TemperatureF,DewpointF,PressureIn,WindDirection,WindDirectionDegrees,WindSpeedMPH,WindSpeedGustMPH,Humidity,HourlyPrecipIn,Conditions,Clouds,dailyrainin,SoftwareType,DateUTC
2013-01-17 00:02:00,25.0,11.0,30.16,North,6,1.0,2.0,55,0.00,,,0.00,,2013-01-17 07:02:00,
2013-01-17 00:12:00,25.0,11.0,30.16,North,6,1.0,2.0,55,0.00,,,0.00,,2013-01-17 07:12:00,
2013-01-17 00:22:00,25.0,12.0,30.16,North,2,2.0,3.0,56,0.00,,,0.00,,2013-01-17 07:22:00,
2013-01-17 00:32:00,25.0,12.0,30.16,North,354,2.0,5.0,57,0.00,,,0.00,,2013-01-17 07:32:00,
2013-01-17 00:42:00,25.0,12.0,30.16,North,354,2.0,5.0,57,0.00,,,0.00,,2013-01-17 07:42:00,
2013-01-17 00:52:00,25.0,12.0,30.17,North,10,1.0,2.0,56,0.00,,,0.00,,2013-01-17 07:52:00,
2013-01-17 01:02:00,25.0,12.0,30.17,North,358,1.0,2.0,58,0.00,,,0.00,,2013-01-17 08:02:00,
2013-01-17 01:12:00,25.0,12.0,30.17,North,358,1.0,2.0,58,0.00,,,0.00,,2013-01-17 08:12:00,
2013-01-17 01:22:00,24.0,11.0,30.17,North,0,0.0,4.0,58,0.00,,,0.00,,2013-01-17 08:22:00,
2013-01-17 01:32:00,24.0,12.0,30.17,NNE,22,1.0,3.0,59,0.00,,,0.00,,2013-01-17 08:32:00,
2013-01-17 01:43:00,24.0,12.0,30.17,NNE,22,1.0,3.0,59,0.00,,,0.00,,2013-01-17 08:43:00,
2013-01-17 01:53:00,23.0,10.0,30.18,NW,315,0.0,1.0,58,0.00,,,0.00,,2013-01-17 08:53:00,
2013-01-17 02:02:00,23.0,12.0,30.18,NW,319,3.0,3.0,62,0.00,,,0.00,,2013-01-17 09:02:00,
2013-01-17 02:12:00,23.0,12.0,30.18,NW,319,3.0,3.0,62,0.00,,,0.00,,2013-01-17 09:12:00,
2013-01-17 02:22:00,23.0,12.0,30.18,NNW,342,3.0,5.0,62,0.00,,,0.00,,2013-01-17 09:22:00,
2013-01-17 02:32:00,22.0,11.0,30.18,North,351,2.0,3.0,63,0.00,,,0.00,,2013-01-17 09:32:00,
2013-01-17 02:42:00,22.0,11.0,30.18,North,351,2.0,3.0,63,0.00,,,0.00,,2013-01-17 09:42:00,
2013-01-17 02:52:00,22.0,11.0,30.18,North,349,1.0,2.0,63,0.00,,,0.00,,2013-01-17 09:52:00,
2013-01-17 03:02:00,21.0,11.0,30.18,NNW,334,1.0,4.0,64,0.00,,,0.00,,2013-01-17 10:02:00,
2013-01-17 03:12:00,21.0,11.0,30.18,NNW,334,1.0,4.0,64,0.00,,,0.00,,2013-01-17 10:12:00,
2013-01-17 03:22:00,21.0,11.0,30.18,NNW,330,2.0,3.0,65,0.00,,,0.00,,2013-01-17 10:22:00,
2013-01-17 03:32:00,21.0,11.0,30.18,North,351,1.0,3.0,65,0.00,,,0.00,,2013-01-17 10:32:00,
2013-01-17 03:42:00,21.0,11.0,30.18,North,351,1.0,3.0,65,0.00,,,0.00,,2013-01-17 10:42:00,
2013-01-17 03:53:00,20.0,11.0,30.18,North,350,2.0,5.0,66,0.00,,,0.00,,2013-01-17 10:53:00,
2013-01-17 04:02:00,21.0,11.0,30.18,North,5,3.0,5.0,66,0.00,,,0.00,,2013-01-17 11:02:00,
2013-01-17 04:12:00,21.0,11.0,30.18,North,5,3.0,5.0,66,0.00,,,0.00,,2013-01-17 11:12:00,
2013-01-17 04:22:00,20.0,11.0,30.18,North,352,3.0,4.0,66,0.00,,,0.00,,2013-01-17 11:22:00,
2013-01-17 04:32:00,20.0,11.0,30.18,NNE,19,2.0,4.0,66,0.00,,,0.00,,2013-01-17 11:32:00,
2013-01-17 04:42:00,20.0,11.0,30.18,NNE,19,2.0,4.0,66,0.00,,,0.00,,2013-01-17 11:42:00,
2013-01-17 04:53:00,20.0,11.0,30.18,North,351,3.0,4.0,66,0.00,,,0.00,,2013-01-17 11:53:00,
2013-01-17 05:02:00,20.0,10.0,30.18,North,352,1.0,3.0,65,0.00,,,0.00,,2013-01-17 12:02:00,
2013-01-17 05:12:00,20.0,10.0,30.18,North,352,1.0,3.0,65,0.00,,,0.00,,2013-01-17 12:12:00,
2013-01-17 05:22:00,20.0,11.0,30.17,North,350,4.0,5.0,66,0.00,,,0.00,,2013-01-17 12:22:00,
2013-01-17 05:32:00,20.0,11.0,30.17,NNW,333,4.0,5.0,67,0.00,,,0.00,,2013-01-17 12:32:00,
2013-01-17 05:42:00,20.0,11.0,30.17,NNW,333,4.0,5.0,67,0.00,,,0.00,,2013-01-17 12:42:00,
2013-01-17 05:53:00,20.0,11.0,30.17,NW,324,2.0,4.0,67,0.00,,,0.00,,2013-01-17 12:53:00,
2013-01-17 06:03:00,19.0,9.0,30.18,NNW,327,1.0,1.0,65,0.00,,,0.00,,2013-01-17 13:03:00,
2013-01-17 06:12:00,19.0,9.0,30.18,NNW,327,1.0,1.0,65,0.00,,,0.00,,2013-01-17 13:12:00,
2013-01-17 06:22:00,20.0,11.0,30.18,North,350,1.0,2.0,67,0.00,,,0.00,,2013-01-17 13:22:00,
2013-01-17 06:33:00,20.0,11.0,30.19,NW,326,2.0,3.0,67,0.00,,,0.00,,2013-01-17 13:33:00,
2013-01-17 06:43:00,20.0,11.0,30.19,NW,326,2.0,3.0,67,0.00,,,0.00,,2013-01-17 13:43:00,
2013-01-17 06:53:00,19.0,10.0,30.19,North,0,1.0,3.0,67,0.00,,,0.00,,2013-01-17 13:53:00,
2013-01-17 07:03:00,19.0,9.0,30.20,ESE,113,0.0,1.0,65,0.00,,,0.00,,2013-01-17 14:03:00,
2013-01-17 07:12:00,19.0,9.0,30.20,ESE,113,0.0,1.0,65,0.00,,,0.00,,2013-01-17 14:12:00,
2013-01-17 07:23:00,18.0,8.0,30.20,SE,135,0.0,0.0,65,0.00,,,0.00,,2013-01-17 14:23:00,
2013-01-17 07:33:00,18.0,8.0,30.21,SE,135,0.0,0.0,65,0.00,,,0.00,,2013-01-17 14:33:00,
2013-01-17 07:42:00,18.0,8.0,30.21,SE,135,0.0,0.0,65,0.00,,,0.00,,2013-01-17 14:42:00,
2013-01-17 07:53:00,17.0,8.0,30.21,NNW,338,0.0,0.0,66,0.00,,,0.00,,2013-01-17 14:53:00,
2013-01-17 08:03:00,17.0,9.0,30.21,NNW,338,0.0,0.0,69,0.00,,,0.00,,2013-01-17 15:03:00,
2013-01-17 08:12:00,17.0,9.0,30.21,NNW,338,0.0,0.0,69,0.00,,,0.00,,2013-01-17 15:12:00,
2013-01-17 08:22:00,18.0,10.0,30.22,NW,315,0.0,1.0,70,0.00,,,0.00,,2013-01-17 15:22:00,
2013-01-17 08:33:00,20.0,12.0,30.22,NNW,337,2.0,3.0,70,0.00,,,0.00,,2013-01-17 15:33:00,
2013-01-17 08:43:00,20.0,12.0,30.22,NNW,337,2.0,3.0,70,0.00,,,0.00,,2013-01-17 15:43:00,
2013-01-17 08:53:00,21.0,11.0,30.23,NW,311,1.0,3.0,66,0.00,,,0.00,,2013-01-17 15:53:00,
2013-01-17 09:02:00,22.0,12.0,30.23,NNW,328,2.0,3.0,65,0.00,,,0.00,,2013-01-17 16:02:00,
2013-01-17 09:12:00,22.0,12.0,30.23,NNW,328,2.0,3.0,65,0.00,,,0.00,,2013-01-17 16:12:00,
2013-01-17 09:22:00,24.0,13.0,30.24,WSW,251,2.0,2.0,63,0.00,,,0.00,,2013-01-17 16:22:00,
2013-01-17 09:33:00,26.0,14.0,30.24,NW,318,1.0,2.0,60,0.00,,,0.00,,2013-01-17 16:33:00,
2013-01-17 09:43:00,26.0,14.0,30.24,NW,318,1.0,2.0,60,0.00,,,0.00,,2013-01-17 16:43:00,
2013-01-17 09:53:00,27.0,14.0,30.24,NNW,333,2.0,3.0,58,0.00,,,0.00,,2013-01-17 16:53:00,
2013-01-17 10:03:00,28.0,14.0,30.24,NNW,328,2.0,3.0,56,0.00,,,0.00,,2013-01-17 17:03:00,
2013-01-17 10:12:00,28.0,14.0,30.24,NNW,328,2.0,3.0,56,0.00,,,0.00,,2013-01-17 17:12:00,
2013-01-17 10:22:00,29.0,14.0,30.24,NW,317,1.0,3.0,54,0.00,,,0.00,,2013-01-17 17:22:00,
2013-01-17 10:33:00,31.0,15.0,30.24,WNW,300,4.0,4.0,50,0.00,,,0.00,,2013-01-17 17:33:00,
2013-01-17 10:43:00,31.0,15.0,30.24,WNW,300,4.0,4.0,50,0.00,,,0.00,,2013-01-17 17:43:00,
2013-01-17 10:53:00,31.0,15.0,30.24,WNW,299,2.0,5.0,51,0.00,,,0.00,,2013-01-17 17:53:00,
2013-01-17 11:03:00,32.0,15.0,30.23,WNW,294,3.0,5.0,49,0.00,,,0.00,,2013-01-17 18:03:00,
2013-01-17 11:12:00,32.0,15.0,30.23,WNW,294,3.0,5.0,49,0.00,,,0.00,,2013-01-17 18:12:00,
2013-01-17 11:22:00,32.0,15.0,30.23,NNW,332,1.0,4.0,48,0.00,,,0.00,,2013-01-17 18:22:00,
2013-01-17 11:33:00,34.0,15.0,30.22,NW,318,2.0,4.0,45,0.00,,,0.00,,2013-01-17 18:33:00,
2013-01-17 11:43:00,34.0,15.0,30.22,NW,318,2.0,4.0,45,0.00,,,0.00,,2013-01-17 18:43:00,
2013-01-17 11:53:00,35.0,17.0,30.21,SSW,211,1.0,3.0,48,0.00,,,0.00,,2013-01-17 18:53:00,
2013-01-17 12:03:00,36.0,17.0,30.20,SW,224,2.0,3.0,45,0.00,,,0.00,,2013-01-17 19:03:00,
2013-01-17 12:12:00,36.0,17.0,30.20,SW,224,2.0,3.0,45,0.00,,,0.00,,2013-01-17 19:12:00,
2013-01-17 12:22:00,39.0,18.0,30.20,South,188,2.0,3.0,43,0.00,,,0.00,,2013-01-17 19:22:00,
2013-01-17 12:33:00,39.0,19.0,30.18,ESE,115,1.0,3.0,44,0.00,,,0.00,,2013-01-17 19:33:00,
2013-01-17 12:42:00,39.0,19.0,30.18,ESE,115,1.0,3.0,44,0.00,,,0.00,,2013-01-17 19:42:00,
2013-01-17 12:53:00,41.0,20.0,30.18,ESE,116,2.0,4.0,42,0.00,,,0.00,,2013-01-17 19:53:00,
2013-01-17 13:03:00,42.0,20.0,30.17,South,188,2.0,3.0,41,0.00,,,0.00,,2013-01-17 20:03:00,
2013-01-17 13:12:00,42.0,20.0,30.17,South,188,2.0,3.0,41,0.00,,,0.00,,2013-01-17 20:12:00,
2013-01-17 13:23:00,43.0,20.0,30.16,East,96,2.0,5.0,40,0.00,,,0.00,,2013-01-17 20:23:00,
2013-01-17 13:33:00,43.0,18.0,30.15,NW,318,2.0,4.0,36,0.00,,,0.00,,2013-01-17 20:33:00,
2013-01-17 13:43:00,43.0,18.0,30.15,NW,318,2.0,4.0,36,0.00,,,0.00,,2013-01-17 20:43:00,
2013-01-17 13:54:00,43.0,17.0,30.15,North,357,1.0,3.0,35,0.00,,,0.00,,2013-01-17 20:54:00,
2013-01-17 14:03:00,44.0,18.0,30.14,NE,49,1.0,3.0,35,0.00,,,0.00,,2013-01-17 21:03:00,
2013-01-17 14:12:00,44.0,18.0,30.14,NE,49,1.0,3.0,35,0.00,,,0.00,,2013-01-17 21:12:00,
2013-01-17 14:23:00,45.0,18.0,30.14,North,11,2.0,3.0,33,0.00,,,0.00,,2013-01-17 21:23:00,
2013-01-17 14:33:00,45.0,19.0,30.13,SE,145,1.0,1.0,35,0.00,,,0.00,,2013-01-17 21:33:00,
2013-01-17 14:42:00,45.0,19.0,30.13,SE,145,1.0,1.0,35,0.00,,,0.00,,2013-01-17 21:42:00,
2013-01-17 14:53:00,46.0,19.0,30.13,NW,326,2.0,4.0,33,0.00,,,0.00,,2013-01-17 21:53:00,
2013-01-17 15:03:00,46.0,19.0,30.12,WNW,282,2.0,4.0,33,0.00,,,0.00,,2013-01-17 22:03:00,
2013-01-17 15:12:00,46.0,19.0,30.12,WNW,282,2.0,4.0,33,0.00,,,0.00,,2013-01-17 22:12:00,
2013-01-17 15:23:00,47.0,20.0,30.12,WSW,241,2.0,3.0,34,0.00,,,0.00,,2013-01-17 22:23:00,
2013-01-17 15:33:00,47.0,18.0,30.12,NW,318,2.0,3.0,31,0.00,,,0.00,,2013-01-17 22:33:00,
2013-01-17 15:42:00,47.0,18.0,30.12,NW,318,2.0,3.0,31,0.00,,,0.00,,2013-01-17 22:42:00,
2013-01-17 15:53:00,47.0,19.0,30.12,NW,304,2.0,3.0,32,0.00,,,0.00,,2013-01-17 22:53:00,
2013-01-17 16:03:00,48.0,20.0,30.12,NNW,331,1.0,3.0,32,0.00,,,0.00,,2013-01-17 23:03:00,
2013-01-17 16:12:00,48.0,20.0,30.12,NNW,331,1.0,3.0,32,0.00,,,0.00,,2013-01-17 23:12:00,
2013-01-17 16:22:00,48.0,19.0,30.12,West,267,2.0,4.0,31,0.00,,,0.00,,2013-01-17 23:22:00,
2013-01-17 16:32:00,47.0,19.0,30.12,SW,236,4.0,5.0,32,0.00,,,0.00,,2013-01-17 23:32:00,
2013-01-17 16:42:00,47.0,19.0,30.12,SW,236,4.0,5.0,32,0.00,,,0.00,,2013-01-17 23:42:00,
2013-01-17 16:52:00,47.0,19.0,30.12,WSW,238,2.0,3.0,32,0.00,,,0.00,,2013-01-17 23:52:00,
2013-01-17 17:02:00,47.0,18.0,30.12,West,259,3.0,4.0,31,0.00,,,0.00,,2013-01-18 00:02:00,
2013-01-17 17:12:00,47.0,18.0,30.12,West,259,3.0,4.0,31,0.00,,,0.00,,2013-01-18 00:12:00,
2013-01-17 17:23:00,46.0,18.0,30.13,West,267,2.0,3.0,32,0.00,,,0.00,,2013-01-18 00:23:00,
2013-01-17 17:32:00,46.0,18.0,30.13,West,267,2.0,3.0,32,0.00,,,0.00,,2013-01-18 00:32:00,
2013-01-17 17:42:00,46.0,19.0,30.13,WNW,287,1.0,2.0,33,0.00,,,0.00,,2013-01-18 00:42:00,
2013-01-17 17:53:00,45.0,18.0,30.13,West,270,0.0,1.0,33,0.00,,,0.00,,2013-01-18 00:53:00,
2013-01-17 18:02:00,43.0,16.0,30.13,West,270,0.0,0.0,33,0.00,,,0.00,,2013-01-18 01:02:00,
2013-01-17 18:12:00,43.0,16.0,30.13,West,270,0.0,0.0,33,0.00,,,0.00,,2013-01-18 01:12:00,
2013-01-17 18:22:00,42.0,16.0,30.14,ESE,113,0.0,0.0,35,0.00,,,0.00,,2013-01-18 01:22:00,
2013-01-17 18:33:00,40.0,16.0,30.14,East,90,2.0,2.0,37,0.00,,,0.00,,2013-01-18 01:33:00,
2013-01-17 18:42:00,40.0,16.0,30.14,East,90,2.0,2.0,37,0.00,,,0.00,,2013-01-18 01:42:00,
2013-01-17 18:53:00,39.0,16.0,30.14,East,90,2.0,2.0,38,0.00,,,0.00,,2013-01-18 01:53:00,
2013-01-17 19:02:00,38.0,15.0,30.14,East,90,1.0,1.0,39,0.00,,,0.00,,2013-01-18 02:02:00,
2013-01-17 19:12:00,38.0,15.0,30.14,East,90,1.0,1.0,39,0.00,,,0.00,,2013-01-18 02:12:00,
2013-01-17 19:22:00,37.0,15.0,30.15,East,90,1.0,1.0,40,0.00,,,0.00,,2013-01-18 02:22:00,
2013-01-17 19:32:00,36.0,15.0,30.15,East,95,1.0,1.0,42,0.00,,,0.00,,2013-01-18 02:32:00,
2013-01-17 19:42:00,36.0,15.0,30.15,East,95,1.0,1.0,42,0.00,,,0.00,,2013-01-18 02:42:00,
2013-01-17 19:53:00,36.0,15.0,30.15,ESE,109,2.0,2.0,42,0.00,,,0.00,,2013-01-18 02:53:00,
2013-01-17 20:02:00,35.0,15.0,30.15,East,96,2.0,2.0,43,0.00,,,0.00,,2013-01-18 03:02:00,
2013-01-17 20:12:00,35.0,15.0,30.15,East,96,2.0,2.0,43,0.00,,,0.00,,2013-01-18 03:12:00,
2013-01-17 20:22:00,34.0,14.0,30.15,East,92,2.0,2.0,44,0.00,,,0.00,,2013-01-18 03:22:00,
2013-01-17 20:33:00,34.0,15.0,30.15,East,98,1.0,2.0,45,0.00,,,0.00,,2013-01-18 03:33:00,
2013-01-17 20:42:00,34.0,15.0,30.15,East,98,1.0,2.0,45,0.00,,,0.00,,2013-01-18 03:42:00,
2013-01-17 20:53:00,33.0,15.0,30.15,East,90,2.0,3.0,46,0.00,,,0.00,,2013-01-18 03:53:00,
2013-01-17 21:02:00,33.0,15.0,30.15,East,90,1.0,2.0,46,0.00,,,0.00,,2013-01-18 04:02:00,
2013-01-17 21:12:00,33.0,15.0,30.15,East,90,1.0,2.0,46,0.00,,,0.00,,2013-01-18 04:12:00,
2013-01-17 21:22:00,32.0,14.0,30.15,ESE,106,1.0,2.0,47,0.00,,,0.00,,2013-01-18 04:22:00,
2013-01-17 21:32:00,32.0,15.0,30.14,East,90,1.0,2.0,48,0.00,,,0.00,,2013-01-18 04:32:00,
2013-01-17 21:42:00,32.0,15.0,30.14,East,90,1.0,2.0,48,0.00,,,0.00,,2013-01-18 04:42:00,
2013-01-17 21:53:00,31.0,14.0,30.14,East,90,1.0,2.0,49,0.00,,,0.00,,2013-01-18 04:53:00,
2013-01-17 22:03:00,31.0,15.0,30.14,NW,315,1.0,1.0,50,0.00,,,0.00,,2013-01-18 05:03:00,
2013-01-17 22:12:00,31.0,15.0,30.14,NW,315,1.0,1.0,50,0.00,,,0.00,,2013-01-18 05:12:00,
2013-01-17 22:22:00,30.0,14.0,30.14,West,270,0.0,0.0,50,0.00,,,0.00,,2013-01-18 05:22:00,
2013-01-17 22:33:00,30.0,14.0,30.14,ESE,110,1.0,1.0,51,0.00,,,0.00,,2013-01-18 05:33:00,
2013-01-17 22:42:00,30.0,14.0,30.14,ESE,110,1.0,1.0,51,0.00,,,0.00,,2013-01-18 05:42:00,
2013-01-17 22:53:00,29.0,14.0,30.14,ESE,113,0.0,1.0,52,0.00,,,0.00,,2013-01-18 05:53:00,
2013-01-17 23:02:00,29.0,14.0,30.14,East,90,1.0,2.0,53,0.00,,,0.00,,2013-01-18 06:02:00,
2013-01-17 23:12:00,29.0,14.0,30.14,East,90,1.0,2.0,53,0.00,,,0.00,,2013-01-18 06:12:00,
2013-01-17 23:22:00,28.0,14.0,30.14,ESE,113,1.0,3.0,54,0.00,,,0.00,,2013-01-18 06:22:00,
2013-01-17 23:32:00,28.0,14.0,30.14,ESE,113,1.0,2.0,54,0.00,,,0.00,,2013-01-18 06:32:00,
2013-01-17 23:43:00,28.0,14.0,30.14,ESE,113,1.0,2.0,54,0.00,,,0.00,,2013-01-18 06:43:00,
2013-01-17 23:52:00,28.0,14.0,30.13,SE,134,1.0,1.0,55,0.00,,,0.00,,2013-01-18 06:52:00,